Pagrindinis puslapis
METAR-TAF:

METAR-TAF

Oro uostai :

Mursija, Ispanija

platuma: 37-47N, ilguma: 000-48W, Aukštis: 5 m

Dabartinis oras

Ataskaita buvo paskelbta 20 minutes, ne 11:00 UTC
Vėjas 7 kt iš Šiaurės, svyruoja nuo Šiaurės Vakarų ir Šiaurės/Šiaurės Rytų
Temperatūra 13°C
Drėgmė 100%
Slėgis 1019 hPa
Matomumas 10 km arba daugiau
Mažai debesys ne aukštis 3000 ft

METAR: LELC 251100Z 36007KT 320V020 9999 FEW030 13/13 Q1019 NOSIG

Laikas: 12:20 (11:20 UTC)

Prognozė

Ataskaita buvo paskelbta 6 valandos ir 20 minutes, ne 05:00 UTC
Prognozė galioja nuo 25 metu 06 UTC su 26 metu 06 UTC
Vėjas 9 kt iš Šiaurės/Šiaurės Rytų
Matomumas 10 km arba daugiau
Išsisklaidę debesys ne aukštis 2000 ft

TAF: LELC 250500Z 2506/2606 02009KT 9999 SCT020 TX17/2513Z TN08/2506Z

Orai ataskaitas ir orų prognozės (METAR, TAF).

turimą stotys yra geltonos ir raudonos taškus žemėlapyje.

Perkelti pele per norėdami pamatyti stoties vardą.

Tada spustelėkite, norėdami matyti oro stebėjimo ir prognozės.

Norėdami pakeisti žemėlapį: spustelėkite ant žalios mygtukų su juodo kryžiaus žemyn,; žalią mygtuką su brūkšneliu, jei norite nutolinti; arba žalių rodyklių gretimoms žemėlapius.


METAR-TAF: